sensor_id;sensor_type;location;lat;lon;timestamp;P1;durP1;ratioP1;P2;durP2;ratioP2
5391;SDS011;2719;53.624;9.786;2024-02-23T00:01:09;1.27;;;0.40;;
5391;SDS011;2719;53.624;9.786;2024-02-23T00:03:36;1.80;;;0.30;;
5391;SDS011;2719;53.624;9.786;2024-02-23T00:06:03;1.00;;;0.30;;
5391;SDS011;2719;53.624;9.786;2024-02-23T00:08:30;1.10;;;0.30;;
5391;SDS011;2719;53.624;9.786;2024-02-23T00:10:57;1.03;;;0.37;;
5391;SDS011;2719;53.624;9.786;2024-02-23T00:13:24;0.90;;;0.30;;
5391;SDS011;2719;53.624;9.786;2024-02-23T00:15:52;1.43;;;0.30;;
5391;SDS011;2719;53.624;9.786;2024-02-23T00:18:19;1.43;;;0.40;;
5391;SDS011;2719;53.624;9.786;2024-02-23T00:20:46;3.10;;;0.50;;
5391;SDS011;2719;53.624;9.786;2024-02-23T00:23:12;4.73;;;0.50;;
5391;SDS011;2719;53.624;9.786;2024-02-23T00:25:39;2.93;;;0.50;;
5391;SDS011;2719;53.624;9.786;2024-02-23T00:28:06;1.67;;;0.30;;
5391;SDS011;2719;53.624;9.786;2024-02-23T00:30:34;4.13;;;0.40;;
5391;SDS011;2719;53.624;9.786;2024-02-23T00:33:00;2.47;;;0.57;;
5391;SDS011;2719;53.624;9.786;2024-02-23T00:35:27;3.37;;;0.50;;
5391;SDS011;2719;53.624;9.786;2024-02-23T00:37:54;2.00;;;0.37;;
5391;SDS011;2719;53.624;9.786;2024-02-23T00:40:20;1.00;;;0.37;;
5391;SDS011;2719;53.624;9.786;2024-02-23T00:42:48;3.73;;;0.60;;
5391;SDS011;2719;53.624;9.786;2024-02-23T00:45:15;1.20;;;0.30;;
5391;SDS011;2719;53.624;9.786;2024-02-23T00:47:43;1.00;;;0.30;;
5391;SDS011;2719;53.624;9.786;2024-02-23T00:50:11;1.00;;;0.30;;
5391;SDS011;2719;53.624;9.786;2024-02-23T00:52:38;1.93;;;0.40;;
5391;SDS011;2719;53.624;9.786;2024-02-23T00:55:06;0.90;;;0.30;;
5391;SDS011;2719;53.624;9.786;2024-02-23T00:57:33;1.50;;;0.30;;
5391;SDS011;2719;53.624;9.786;2024-02-23T01:00:00;1.43;;;0.30;;
5391;SDS011;2719;53.624;9.786;2024-02-23T01:02:30;1.40;;;0.30;;
5391;SDS011;2719;53.624;9.786;2024-02-23T01:04:57;0.90;;;0.30;;
5391;SDS011;2719;53.624;9.786;2024-02-23T01:07:24;0.90;;;0.30;;
5391;SDS011;2719;53.624;9.786;2024-02-23T01:09:51;1.00;;;0.30;;
5391;SDS011;2719;53.624;9.786;2024-02-23T01:12:17;1.40;;;0.30;;
5391;SDS011;2719;53.624;9.786;2024-02-23T01:14:44;0.93;;;0.30;;
5391;SDS011;2719;53.624;9.786;2024-02-23T01:17:13;1.00;;;0.30;;
5391;SDS011;2719;53.624;9.786;2024-02-23T01:19:40;0.90;;;0.30;;
5391;SDS011;2719;53.624;9.786;2024-02-23T01:22:08;1.20;;;0.40;;
5391;SDS011;2719;53.624;9.786;2024-02-23T01:24:35;1.10;;;0.30;;
5391;SDS011;2719;53.624;9.786;2024-02-23T01:27:01;0.90;;;0.30;;
5391;SDS011;2719;53.624;9.786;2024-02-23T01:29:28;0.90;;;0.30;;
5391;SDS011;2719;53.624;9.786;2024-02-23T01:31:55;0.90;;;0.30;;
5391;SDS011;2719;53.624;9.786;2024-02-23T01:34:22;1.20;;;0.30;;
5391;SDS011;2719;53.624;9.786;2024-02-23T01:36:48;0.93;;;0.30;;
5391;SDS011;2719;53.624;9.786;2024-02-23T01:39:16;1.20;;;0.30;;
5391;SDS011;2719;53.624;9.786;2024-02-23T01:41:43;3.63;;;0.30;;
5391;SDS011;2719;53.624;9.786;2024-02-23T01:44:10;0.90;;;0.20;;
5391;SDS011;2719;53.624;9.786;2024-02-23T01:46:36;1.20;;;0.30;;
5391;SDS011;2719;53.624;9.786;2024-02-23T01:49:03;1.10;;;0.30;;
5391;SDS011;2719;53.624;9.786;2024-02-23T01:51:33;1.33;;;0.30;;
5391;SDS011;2719;53.624;9.786;2024-02-23T01:54:00;0.90;;;0.20;;
5391;SDS011;2719;53.624;9.786;2024-02-23T01:56:28;0.90;;;0.20;;
5391;SDS011;2719;53.624;9.786;2024-02-23T01:58:56;0.90;;;0.20;;
5391;SDS011;2719;53.624;9.786;2024-02-23T02:01:22;1.03;;;0.30;;
5391;SDS011;2719;53.624;9.786;2024-02-23T02:03:49;0.90;;;0.30;;
5391;SDS011;2719;53.624;9.786;2024-02-23T02:06:16;1.30;;;0.30;;
5391;SDS011;2719;53.624;9.786;2024-02-23T02:08:43;1.00;;;0.30;;
5391;SDS011;2719;53.624;9.786;2024-02-23T02:11:10;1.10;;;0.30;;
5391;SDS011;2719;53.624;9.786;2024-02-23T02:13:38;1.57;;;0.30;;
5391;SDS011;2719;53.624;9.786;2024-02-23T02:16:04;1.00;;;0.30;;
5391;SDS011;2719;53.624;9.786;2024-02-23T02:18:32;0.97;;;0.27;;
5391;SDS011;2719;53.624;9.786;2024-02-23T02:20:58;0.90;;;0.30;;
5391;SDS011;2719;53.624;9.786;2024-02-23T02:23:25;1.20;;;0.27;;
5391;SDS011;2719;53.624;9.786;2024-02-23T02:25:52;1.40;;;0.30;;
5391;SDS011;2719;53.624;9.786;2024-02-23T02:28:19;0.90;;;0.30;;
5391;SDS011;2719;53.624;9.786;2024-02-23T02:30:47;0.90;;;0.20;;
5391;SDS011;2719;53.624;9.786;2024-02-23T02:33:14;0.90;;;0.27;;
5391;SDS011;2719;53.624;9.786;2024-02-23T02:35:41;0.90;;;0.30;;
5391;SDS011;2719;53.624;9.786;2024-02-23T02:38:07;1.87;;;0.30;;
5391;SDS011;2719;53.624;9.786;2024-02-23T02:40:35;0.97;;;0.27;;
5391;SDS011;2719;53.624;9.786;2024-02-23T02:43:01;0.93;;;0.30;;
5391;SDS011;2719;53.624;9.786;2024-02-23T02:45:28;0.90;;;0.20;;
5391;SDS011;2719;53.624;9.786;2024-02-23T02:47:56;0.90;;;0.30;;
5391;SDS011;2719;53.624;9.786;2024-02-23T02:50:23;1.87;;;0.30;;
5391;SDS011;2719;53.624;9.786;2024-02-23T02:52:50;0.90;;;0.30;;
5391;SDS011;2719;53.624;9.786;2024-02-23T02:55:16;1.20;;;0.30;;
5391;SDS011;2719;53.624;9.786;2024-02-23T02:57:43;0.90;;;0.20;;
5391;SDS011;2719;53.624;9.786;2024-02-23T03:00:10;0.90;;;0.30;;
5391;SDS011;2719;53.624;9.786;2024-02-23T03:02:38;4.40;;;0.30;;
5391;SDS011;2719;53.624;9.786;2024-02-23T03:05:06;1.20;;;0.40;;
5391;SDS011;2719;53.624;9.786;2024-02-23T03:07:33;2.43;;;0.50;;
5391;SDS011;2719;53.624;9.786;2024-02-23T03:10:00;1.70;;;0.30;;
5391;SDS011;2719;53.624;9.786;2024-02-23T03:12:26;1.00;;;0.30;;
5391;SDS011;2719;53.624;9.786;2024-02-23T03:14:53;1.20;;;0.40;;
5391;SDS011;2719;53.624;9.786;2024-02-23T03:17:20;0.90;;;0.30;;
5391;SDS011;2719;53.624;9.786;2024-02-23T03:19:47;1.77;;;0.40;;
5391;SDS011;2719;53.624;9.786;2024-02-23T03:22:16;2.70;;;0.30;;
5391;SDS011;2719;53.624;9.786;2024-02-23T03:24:43;1.43;;;0.30;;
5391;SDS011;2719;53.624;9.786;2024-02-23T03:27:09;1.63;;;0.30;;
5391;SDS011;2719;53.624;9.786;2024-02-23T03:29:38;3.10;;;0.30;;
5391;SDS011;2719;53.624;9.786;2024-02-23T03:32:05;3.37;;;0.30;;
5391;SDS011;2719;53.624;9.786;2024-02-23T03:34:32;1.73;;;0.30;;
5391;SDS011;2719;53.624;9.786;2024-02-23T03:36:58;1.33;;;0.30;;
5391;SDS011;2719;53.624;9.786;2024-02-23T03:39:28;0.90;;;0.30;;
5391;SDS011;2719;53.624;9.786;2024-02-23T03:41:57;0.90;;;0.30;;
5391;SDS011;2719;53.624;9.786;2024-02-23T03:44:23;1.10;;;0.30;;
5391;SDS011;2719;53.624;9.786;2024-02-23T03:46:50;5.27;;;0.50;;
5391;SDS011;2719;53.624;9.786;2024-02-23T03:49:16;2.30;;;0.30;;
5391;SDS011;2719;53.624;9.786;2024-02-23T03:51:43;1.33;;;0.30;;
5391;SDS011;2719;53.624;9.786;2024-02-23T03:54:10;1.20;;;0.40;;
5391;SDS011;2719;53.624;9.786;2024-02-23T03:56:39;1.43;;;0.40;;
5391;SDS011;2719;53.624;9.786;2024-02-23T03:59:06;2.50;;;0.37;;
5391;SDS011;2719;53.624;9.786;2024-02-23T04:01:34;1.00;;;0.30;;
5391;SDS011;2719;53.624;9.786;2024-02-23T04:04:01;2.40;;;0.30;;
5391;SDS011;2719;53.624;9.786;2024-02-23T04:06:28;2.73;;;0.40;;
5391;SDS011;2719;53.624;9.786;2024-02-23T04:08:54;1.87;;;0.47;;
5391;SDS011;2719;53.624;9.786;2024-02-23T04:11:21;1.60;;;0.33;;
5391;SDS011;2719;53.624;9.786;2024-02-23T04:13:49;1.30;;;0.30;;
5391;SDS011;2719;53.624;9.786;2024-02-23T04:16:16;1.40;;;0.40;;
5391;SDS011;2719;53.624;9.786;2024-02-23T04:18:42;1.57;;;0.33;;
5391;SDS011;2719;53.624;9.786;2024-02-23T04:21:09;1.60;;;0.40;;
5391;SDS011;2719;53.624;9.786;2024-02-23T04:23:35;1.80;;;0.50;;
5391;SDS011;2719;53.624;9.786;2024-02-23T04:26:02;2.57;;;0.40;;
5391;SDS011;2719;53.624;9.786;2024-02-23T04:28:29;1.70;;;0.40;;
5391;SDS011;2719;53.624;9.786;2024-02-23T04:30:59;0.90;;;0.30;;
5391;SDS011;2719;53.624;9.786;2024-02-23T04:33:26;1.10;;;0.40;;
5391;SDS011;2719;53.624;9.786;2024-02-23T04:35:53;5.90;;;0.50;;
5391;SDS011;2719;53.624;9.786;2024-02-23T04:38:19;1.97;;;0.40;;
5391;SDS011;2719;53.624;9.786;2024-02-23T04:40:46;3.00;;;0.50;;
5391;SDS011;2719;53.624;9.786;2024-02-23T04:43:13;1.87;;;0.30;;
5391;SDS011;2719;53.624;9.786;2024-02-23T04:45:39;2.80;;;0.40;;
5391;SDS011;2719;53.624;9.786;2024-02-23T04:48:07;7.70;;;0.40;;
5391;SDS011;2719;53.624;9.786;2024-02-23T04:50:34;7.07;;;0.53;;
5391;SDS011;2719;53.624;9.786;2024-02-23T04:53:01;2.60;;;0.50;;
5391;SDS011;2719;53.624;9.786;2024-02-23T04:55:28;5.13;;;0.50;;
5391;SDS011;2719;53.624;9.786;2024-02-23T04:57:54;3.77;;;0.50;;
5391;SDS011;2719;53.624;9.786;2024-02-23T05:00:21;1.77;;;0.40;;
5391;SDS011;2719;53.624;9.786;2024-02-23T05:02:48;2.03;;;0.50;;
5391;SDS011;2719;53.624;9.786;2024-02-23T05:05:16;3.53;;;0.50;;
5391;SDS011;2719;53.624;9.786;2024-02-23T05:07:42;2.27;;;0.50;;
5391;SDS011;2719;53.624;9.786;2024-02-23T05:10:09;4.50;;;0.50;;
5391;SDS011;2719;53.624;9.786;2024-02-23T05:12:36;5.70;;;0.80;;
5391;SDS011;2719;53.624;9.786;2024-02-23T05:15:03;2.20;;;0.50;;
5391;SDS011;2719;53.624;9.786;2024-02-23T05:17:30;4.77;;;0.77;;
5391;SDS011;2719;53.624;9.786;2024-02-23T05:19:56;10.27;;;0.67;;
5391;SDS011;2719;53.624;9.786;2024-02-23T05:22:24;4.20;;;0.50;;
5391;SDS011;2719;53.624;9.786;2024-02-23T05:24:51;2.87;;;0.50;;
5391;SDS011;2719;53.624;9.786;2024-02-23T05:27:18;2.63;;;0.47;;
5391;SDS011;2719;53.624;9.786;2024-02-23T05:29:44;3.67;;;0.50;;
5391;SDS011;2719;53.624;9.786;2024-02-23T05:32:11;3.57;;;0.70;;
5391;SDS011;2719;53.624;9.786;2024-02-23T05:34:38;4.67;;;0.60;;
5391;SDS011;2719;53.624;9.786;2024-02-23T05:37:04;1.87;;;0.50;;
5391;SDS011;2719;53.624;9.786;2024-02-23T05:39:32;7.93;;;0.70;;
5391;SDS011;2719;53.624;9.786;2024-02-23T05:41:59;4.00;;;0.90;;
5391;SDS011;2719;53.624;9.786;2024-02-23T05:44:26;5.90;;;0.60;;
5391;SDS011;2719;53.624;9.786;2024-02-23T05:46:53;2.23;;;0.50;;
5391;SDS011;2719;53.624;9.786;2024-02-23T05:49:20;3.67;;;0.40;;
5391;SDS011;2719;53.624;9.786;2024-02-23T05:51:47;2.60;;;0.43;;
5391;SDS011;2719;53.624;9.786;2024-02-23T05:54:13;10.93;;;1.00;;
5391;SDS011;2719;53.624;9.786;2024-02-23T05:56:41;2.07;;;0.40;;
5391;SDS011;2719;53.624;9.786;2024-02-23T05:59:10;2.43;;;0.40;;
5391;SDS011;2719;53.624;9.786;2024-02-23T06:01:36;1.73;;;0.50;;
5391;SDS011;2719;53.624;9.786;2024-02-23T06:04:03;5.60;;;0.60;;
5391;SDS011;2719;53.624;9.786;2024-02-23T06:06:30;6.40;;;0.70;;
5391;SDS011;2719;53.624;9.786;2024-02-23T06:08:57;3.67;;;0.50;;
5391;SDS011;2719;53.624;9.786;2024-02-23T06:11:25;3.03;;;0.50;;
5391;SDS011;2719;53.624;9.786;2024-02-23T06:13:53;7.03;;;0.50;;
5391;SDS011;2719;53.624;9.786;2024-02-23T06:16:19;5.03;;;0.80;;
5391;SDS011;2719;53.624;9.786;2024-02-23T06:18:46;3.90;;;0.57;;
5391;SDS011;2719;53.624;9.786;2024-02-23T06:21:14;4.73;;;0.50;;
5391;SDS011;2719;53.624;9.786;2024-02-23T06:23:41;1.20;;;0.30;;
5391;SDS011;2719;53.624;9.786;2024-02-23T06:26:07;1.10;;;0.33;;
5391;SDS011;2719;53.624;9.786;2024-02-23T06:28:34;6.50;;;0.50;;
5391;SDS011;2719;53.624;9.786;2024-02-23T06:31:03;4.03;;;0.63;;
5391;SDS011;2719;53.624;9.786;2024-02-23T06:33:30;3.60;;;0.60;;
5391;SDS011;2719;53.624;9.786;2024-02-23T06:35:57;6.50;;;0.57;;
5391;SDS011;2719;53.624;9.786;2024-02-23T06:38:24;3.50;;;0.50;;
5391;SDS011;2719;53.624;9.786;2024-02-23T06:40:51;2.60;;;0.60;;
5391;SDS011;2719;53.624;9.786;2024-02-23T06:43:17;2.30;;;0.60;;
5391;SDS011;2719;53.624;9.786;2024-02-23T06:45:44;3.47;;;0.60;;
5391;SDS011;2719;53.624;9.786;2024-02-23T06:48:12;1.87;;;0.60;;
5391;SDS011;2719;53.624;9.786;2024-02-23T06:50:38;3.43;;;0.50;;
5391;SDS011;2719;53.624;9.786;2024-02-23T06:53:05;4.50;;;0.63;;
5391;SDS011;2719;53.624;9.786;2024-02-23T06:55:33;4.40;;;0.80;;
5391;SDS011;2719;53.624;9.786;2024-02-23T06:58:00;5.10;;;0.80;;
5391;SDS011;2719;53.624;9.786;2024-02-23T07:00:27;2.30;;;0.60;;
5391;SDS011;2719;53.624;9.786;2024-02-23T07:02:54;4.47;;;0.80;;
5391;SDS011;2719;53.624;9.786;2024-02-23T07:05:25;5.87;;;0.90;;
5391;SDS011;2719;53.624;9.786;2024-02-23T07:07:51;8.97;;;0.70;;
5391;SDS011;2719;53.624;9.786;2024-02-23T07:10:18;4.10;;;0.70;;
5391;SDS011;2719;53.624;9.786;2024-02-23T07:12:45;3.67;;;0.80;;
5391;SDS011;2719;53.624;9.786;2024-02-23T07:15:12;4.67;;;0.60;;
5391;SDS011;2719;53.624;9.786;2024-02-23T07:17:38;4.30;;;0.97;;
5391;SDS011;2719;53.624;9.786;2024-02-23T07:20:05;1.70;;;0.50;;
5391;SDS011;2719;53.624;9.786;2024-02-23T07:22:33;4.63;;;0.87;;
5391;SDS011;2719;53.624;9.786;2024-02-23T07:25:01;1.90;;;0.60;;
5391;SDS011;2719;53.624;9.786;2024-02-23T07:27:29;1.87;;;0.60;;
5391;SDS011;2719;53.624;9.786;2024-02-23T07:29:56;6.20;;;0.90;;
5391;SDS011;2719;53.624;9.786;2024-02-23T07:32:23;5.77;;;0.70;;
5391;SDS011;2719;53.624;9.786;2024-02-23T07:34:50;1.87;;;0.50;;
5391;SDS011;2719;53.624;9.786;2024-02-23T07:37:16;3.23;;;0.63;;
5391;SDS011;2719;53.624;9.786;2024-02-23T07:39:45;4.40;;;0.60;;
5391;SDS011;2719;53.624;9.786;2024-02-23T07:42:11;4.70;;;0.80;;
5391;SDS011;2719;53.624;9.786;2024-02-23T07:44:39;5.10;;;0.80;;
5391;SDS011;2719;53.624;9.786;2024-02-23T07:47:06;5.07;;;0.80;;
5391;SDS011;2719;53.624;9.786;2024-02-23T07:49:32;10.70;;;0.60;;
5391;SDS011;2719;53.624;9.786;2024-02-23T07:51:59;4.73;;;0.90;;
5391;SDS011;2719;53.624;9.786;2024-02-23T07:54:26;14.77;;;0.90;;
5391;SDS011;2719;53.624;9.786;2024-02-23T07:56:54;5.50;;;0.83;;
5391;SDS011;2719;53.624;9.786;2024-02-23T07:59:22;3.50;;;0.80;;
5391;SDS011;2719;53.624;9.786;2024-02-23T08:01:49;9.90;;;0.93;;
5391;SDS011;2719;53.624;9.786;2024-02-23T08:04:15;4.20;;;0.70;;
5391;SDS011;2719;53.624;9.786;2024-02-23T08:06:42;2.40;;;0.70;;
5391;SDS011;2719;53.624;9.786;2024-02-23T08:09:09;4.20;;;0.70;;
5391;SDS011;2719;53.624;9.786;2024-02-23T08:11:35;3.60;;;0.80;;
5391;SDS011;2719;53.624;9.786;2024-02-23T08:14:03;3.90;;;0.90;;
5391;SDS011;2719;53.624;9.786;2024-02-23T08:16:30;3.93;;;0.90;;
5391;SDS011;2719;53.624;9.786;2024-02-23T08:18:56;9.43;;;0.67;;
5391;SDS011;2719;53.624;9.786;2024-02-23T08:21:24;3.97;;;0.60;;
5391;SDS011;2719;53.624;9.786;2024-02-23T08:23:51;5.13;;;0.80;;
5391;SDS011;2719;53.624;9.786;2024-02-23T08:26:18;6.90;;;0.60;;
5391;SDS011;2719;53.624;9.786;2024-02-23T08:28:45;9.73;;;0.97;;
5391;SDS011;2719;53.624;9.786;2024-02-23T08:31:12;5.47;;;0.80;;
5391;SDS011;2719;53.624;9.786;2024-02-23T08:33:39;4.17;;;1.00;;
5391;SDS011;2719;53.624;9.786;2024-02-23T08:36:06;5.20;;;1.30;;
5391;SDS011;2719;53.624;9.786;2024-02-23T08:38:33;3.10;;;0.70;;
5391;SDS011;2719;53.624;9.786;2024-02-23T08:41:00;4.27;;;0.90;;
5391;SDS011;2719;53.624;9.786;2024-02-23T08:43:26;2.90;;;0.70;;
5391;SDS011;2719;53.624;9.786;2024-02-23T08:45:53;4.70;;;0.67;;
5391;SDS011;2719;53.624;9.786;2024-02-23T08:48:21;2.90;;;0.70;;
5391;SDS011;2719;53.624;9.786;2024-02-23T08:50:47;3.90;;;0.90;;
5391;SDS011;2719;53.624;9.786;2024-02-23T08:53:14;1.70;;;0.50;;
5391;SDS011;2719;53.624;9.786;2024-02-23T08:55:41;5.47;;;0.60;;
5391;SDS011;2719;53.624;9.786;2024-02-23T08:58:07;5.37;;;0.80;;
5391;SDS011;2719;53.624;9.786;2024-02-23T09:00:34;15.30;;;1.27;;
5391;SDS011;2719;53.624;9.786;2024-02-23T09:03:02;10.00;;;0.80;;
5391;SDS011;2719;53.624;9.786;2024-02-23T09:05:30;4.50;;;0.60;;
5391;SDS011;2719;53.624;9.786;2024-02-23T09:07:56;3.03;;;0.60;;
5391;SDS011;2719;53.624;9.786;2024-02-23T09:10:23;14.40;;;0.80;;
5391;SDS011;2719;53.624;9.786;2024-02-23T09:12:50;3.60;;;0.60;;
5391;SDS011;2719;53.624;9.786;2024-02-23T09:15:16;6.10;;;0.73;;
5391;SDS011;2719;53.624;9.786;2024-02-23T09:17:43;7.03;;;0.50;;
5391;SDS011;2719;53.624;9.786;2024-02-23T09:20:10;4.83;;;0.60;;
5391;SDS011;2719;53.624;9.786;2024-02-23T09:22:39;3.00;;;0.67;;
5391;SDS011;2719;53.624;9.786;2024-02-23T09:25:06;5.73;;;0.63;;
5391;SDS011;2719;53.624;9.786;2024-02-23T09:27:33;3.50;;;0.67;;
5391;SDS011;2719;53.624;9.786;2024-02-23T09:30:01;4.70;;;0.60;;
5391;SDS011;2719;53.624;9.786;2024-02-23T09:32:29;4.77;;;0.70;;
5391;SDS011;2719;53.624;9.786;2024-02-23T09:34:55;7.27;;;0.80;;
5391;SDS011;2719;53.624;9.786;2024-02-23T09:37:22;7.87;;;0.80;;
5391;SDS011;2719;53.624;9.786;2024-02-23T09:39:50;4.57;;;0.80;;
5391;SDS011;2719;53.624;9.786;2024-02-23T09:42:16;3.40;;;0.50;;
5391;SDS011;2719;53.624;9.786;2024-02-23T09:44:45;6.67;;;0.70;;
5391;SDS011;2719;53.624;9.786;2024-02-23T09:47:14;7.10;;;0.73;;
5391;SDS011;2719;53.624;9.786;2024-02-23T09:49:41;3.60;;;0.80;;
5391;SDS011;2719;53.624;9.786;2024-02-23T09:52:08;5.40;;;0.70;;
5391;SDS011;2719;53.624;9.786;2024-02-23T09:54:36;5.87;;;0.83;;
5391;SDS011;2719;53.624;9.786;2024-02-23T09:57:06;3.70;;;0.53;;
5391;SDS011;2719;53.624;9.786;2024-02-23T09:59:34;8.13;;;0.87;;
5391;SDS011;2719;53.624;9.786;2024-02-23T10:02:01;10.03;;;0.60;;
5391;SDS011;2719;53.624;9.786;2024-02-23T10:04:31;6.23;;;0.60;;
5391;SDS011;2719;53.624;9.786;2024-02-23T10:06:58;3.77;;;0.90;;
5391;SDS011;2719;53.624;9.786;2024-02-23T10:09:25;7.13;;;1.10;;
5391;SDS011;2719;53.624;9.786;2024-02-23T10:11:52;9.17;;;0.67;;
5391;SDS011;2719;53.624;9.786;2024-02-23T10:14:21;3.80;;;0.50;;
5391;SDS011;2719;53.624;9.786;2024-02-23T10:16:47;4.77;;;0.60;;
5391;SDS011;2719;53.624;9.786;2024-02-23T10:19:18;3.77;;;0.50;;
5391;SDS011;2719;53.624;9.786;2024-02-23T10:21:45;3.43;;;0.60;;
5391;SDS011;2719;53.624;9.786;2024-02-23T10:24:12;3.20;;;0.60;;
5391;SDS011;2719;53.624;9.786;2024-02-23T10:26:39;4.20;;;0.60;;
5391;SDS011;2719;53.624;9.786;2024-02-23T10:29:05;1.70;;;0.50;;
5391;SDS011;2719;53.624;9.786;2024-02-23T10:31:35;5.53;;;0.70;;
5391;SDS011;2719;53.624;9.786;2024-02-23T10:34:02;8.77;;;0.40;;
5391;SDS011;2719;53.624;9.786;2024-02-23T10:36:34;5.77;;;0.80;;
5391;SDS011;2719;53.624;9.786;2024-02-23T10:39:02;8.60;;;0.77;;
5391;SDS011;2719;53.624;9.786;2024-02-23T10:41:29;4.80;;;0.53;;
5391;SDS011;2719;53.624;9.786;2024-02-23T10:44:00;8.40;;;0.60;;
5391;SDS011;2719;53.624;9.786;2024-02-23T10:46:28;7.13;;;0.60;;
5391;SDS011;2719;53.624;9.786;2024-02-23T10:48:58;10.40;;;0.90;;
5391;SDS011;2719;53.624;9.786;2024-02-23T10:51:27;4.93;;;0.77;;
5391;SDS011;2719;53.624;9.786;2024-02-23T10:53:54;7.77;;;0.83;;
5391;SDS011;2719;53.624;9.786;2024-02-23T10:56:21;8.47;;;1.03;;
5391;SDS011;2719;53.624;9.786;2024-02-23T10:58:49;5.50;;;1.20;;
5391;SDS011;2719;53.624;9.786;2024-02-23T11:01:16;4.00;;;0.50;;
5391;SDS011;2719;53.624;9.786;2024-02-23T11:03:45;5.50;;;0.70;;
5391;SDS011;2719;53.624;9.786;2024-02-23T11:06:16;13.30;;;0.83;;
5391;SDS011;2719;53.624;9.786;2024-02-23T11:08:46;4.67;;;0.80;;
5391;SDS011;2719;53.624;9.786;2024-02-23T11:11:12;3.07;;;0.67;;
5391;SDS011;2719;53.624;9.786;2024-02-23T11:13:44;4.53;;;0.70;;
5391;SDS011;2719;53.624;9.786;2024-02-23T11:16:12;4.83;;;0.60;;
5391;SDS011;2719;53.624;9.786;2024-02-23T11:18:48;2.90;;;0.90;;
5391;SDS011;2719;53.624;9.786;2024-02-23T11:21:15;6.07;;;0.53;;
5391;SDS011;2719;53.624;9.786;2024-02-23T11:23:43;7.67;;;0.73;;
5391;SDS011;2719;53.624;9.786;2024-02-23T11:26:13;2.47;;;0.50;;
5391;SDS011;2719;53.624;9.786;2024-02-23T11:28:43;7.03;;;0.83;;
5391;SDS011;2719;53.624;9.786;2024-02-23T11:31:13;3.73;;;0.50;;
5391;SDS011;2719;53.624;9.786;2024-02-23T11:33:47;6.67;;;0.53;;
5391;SDS011;2719;53.624;9.786;2024-02-23T11:36:21;8.33;;;0.90;;
5391;SDS011;2719;53.624;9.786;2024-02-23T11:38:51;5.50;;;0.50;;
5391;SDS011;2719;53.624;9.786;2024-02-23T11:41:19;9.60;;;0.80;;
5391;SDS011;2719;53.624;9.786;2024-02-23T11:43:47;3.13;;;0.50;;
5391;SDS011;2719;53.624;9.786;2024-02-23T11:46:14;4.77;;;0.63;;
5391;SDS011;2719;53.624;9.786;2024-02-23T11:48:41;5.13;;;0.60;;
5391;SDS011;2719;53.624;9.786;2024-02-23T11:51:08;7.00;;;0.50;;
5391;SDS011;2719;53.624;9.786;2024-02-23T11:56:05;1.63;;;0.50;;
5391;SDS011;2719;53.624;9.786;2024-02-23T11:58:32;4.87;;;0.70;;
5391;SDS011;2719;53.624;9.786;2024-02-23T12:00:59;3.97;;;0.60;;
5391;SDS011;2719;53.624;9.786;2024-02-23T12:03:27;5.50;;;0.60;;
5391;SDS011;2719;53.624;9.786;2024-02-23T12:05:54;4.93;;;0.83;;
5391;SDS011;2719;53.624;9.786;2024-02-23T12:08:22;5.60;;;0.60;;
5391;SDS011;2719;53.624;9.786;2024-02-23T12:10:52;6.00;;;0.60;;
5391;SDS011;2719;53.624;9.786;2024-02-23T12:13:19;4.50;;;0.60;;
5391;SDS011;2719;53.624;9.786;2024-02-23T12:15:46;4.90;;;0.60;;
5391;SDS011;2719;53.624;9.786;2024-02-23T12:18:13;1.20;;;0.40;;
5391;SDS011;2719;53.624;9.786;2024-02-23T12:20:40;9.80;;;0.50;;
5391;SDS011;2719;53.624;9.786;2024-02-23T12:23:07;4.63;;;0.50;;
5391;SDS011;2719;53.624;9.786;2024-02-23T12:25:35;2.37;;;0.60;;
5391;SDS011;2719;53.624;9.786;2024-02-23T12:28:03;4.47;;;0.43;;
5391;SDS011;2719;53.624;9.786;2024-02-23T12:30:30;4.93;;;0.50;;
5391;SDS011;2719;53.624;9.786;2024-02-23T12:33:02;6.00;;;0.60;;
5391;SDS011;2719;53.624;9.786;2024-02-23T12:35:29;2.93;;;0.50;;
5391;SDS011;2719;53.624;9.786;2024-02-23T12:37:56;1.73;;;0.40;;
5391;SDS011;2719;53.624;9.786;2024-02-23T12:40:23;3.70;;;0.40;;
5391;SDS011;2719;53.624;9.786;2024-02-23T12:42:49;2.70;;;0.50;;
5391;SDS011;2719;53.624;9.786;2024-02-23T12:45:17;4.27;;;0.67;;
5391;SDS011;2719;53.624;9.786;2024-02-23T12:47:44;1.30;;;0.40;;
5391;SDS011;2719;53.624;9.786;2024-02-23T12:50:10;1.40;;;0.50;;
5391;SDS011;2719;53.624;9.786;2024-02-23T12:52:37;3.77;;;0.47;;
5391;SDS011;2719;53.624;9.786;2024-02-23T12:55:04;1.90;;;0.43;;
5391;SDS011;2719;53.624;9.786;2024-02-23T12:57:31;8.33;;;0.50;;
5391;SDS011;2719;53.624;9.786;2024-02-23T12:59:57;5.60;;;0.53;;
5391;SDS011;2719;53.624;9.786;2024-02-23T13:02:25;3.27;;;0.40;;
5391;SDS011;2719;53.624;9.786;2024-02-23T13:04:52;5.13;;;0.43;;
5391;SDS011;2719;53.624;9.786;2024-02-23T13:07:19;2.07;;;0.40;;
5391;SDS011;2719;53.624;9.786;2024-02-23T13:09:46;3.10;;;0.70;;
5391;SDS011;2719;53.624;9.786;2024-02-23T13:12:12;7.83;;;0.40;;
5391;SDS011;2719;53.624;9.786;2024-02-23T13:14:39;4.53;;;0.50;;
5391;SDS011;2719;53.624;9.786;2024-02-23T13:17:05;1.63;;;0.40;;
5391;SDS011;2719;53.624;9.786;2024-02-23T13:19:33;3.80;;;0.43;;
5391;SDS011;2719;53.624;9.786;2024-02-23T13:22:00;3.60;;;0.77;;
5391;SDS011;2719;53.624;9.786;2024-02-23T13:24:27;3.70;;;0.50;;
5391;SDS011;2719;53.624;9.786;2024-02-23T13:26:53;3.83;;;0.60;;
5391;SDS011;2719;53.624;9.786;2024-02-23T13:29:20;2.60;;;0.50;;
5391;SDS011;2719;53.624;9.786;2024-02-23T13:31:47;2.93;;;0.50;;
5391;SDS011;2719;53.624;9.786;2024-02-23T13:34:13;5.13;;;0.50;;
5391;SDS011;2719;53.624;9.786;2024-02-23T13:36:43;6.47;;;0.60;;
5391;SDS011;2719;53.624;9.786;2024-02-23T13:39:09;5.03;;;0.53;;
5391;SDS011;2719;53.624;9.786;2024-02-23T13:41:36;5.03;;;0.50;;
5391;SDS011;2719;53.624;9.786;2024-02-23T13:44:03;3.27;;;0.50;;
5391;SDS011;2719;53.624;9.786;2024-02-23T13:46:30;1.43;;;0.40;;
5391;SDS011;2719;53.624;9.786;2024-02-23T13:49:02;1.77;;;0.40;;
5391;SDS011;2719;53.624;9.786;2024-02-23T13:51:30;2.63;;;0.50;;
5391;SDS011;2719;53.624;9.786;2024-02-23T13:53:58;1.40;;;0.40;;
5391;SDS011;2719;53.624;9.786;2024-02-23T13:56:25;2.07;;;0.50;;
5391;SDS011;2719;53.624;9.786;2024-02-23T13:58:52;8.30;;;0.63;;
5391;SDS011;2719;53.624;9.786;2024-02-23T14:01:19;4.87;;;0.57;;
5391;SDS011;2719;53.624;9.786;2024-02-23T14:03:46;4.40;;;0.50;;
5391;SDS011;2719;53.624;9.786;2024-02-23T14:06:12;2.83;;;0.50;;
5391;SDS011;2719;53.624;9.786;2024-02-23T14:08:39;1.77;;;0.40;;
5391;SDS011;2719;53.624;9.786;2024-02-23T14:11:08;2.30;;;0.50;;
5391;SDS011;2719;53.624;9.786;2024-02-23T14:13:35;2.37;;;0.80;;
5391;SDS011;2719;53.624;9.786;2024-02-23T14:16:03;4.63;;;0.40;;
5391;SDS011;2719;53.624;9.786;2024-02-23T14:18:30;2.20;;;0.43;;
5391;SDS011;2719;53.624;9.786;2024-02-23T14:21:01;4.17;;;0.60;;
5391;SDS011;2719;53.624;9.786;2024-02-23T14:23:29;3.47;;;0.80;;
5391;SDS011;2719;53.624;9.786;2024-02-23T14:25:55;4.43;;;0.50;;
5391;SDS011;2719;53.624;9.786;2024-02-23T14:28:23;5.90;;;0.40;;
5391;SDS011;2719;53.624;9.786;2024-02-23T14:30:50;2.07;;;0.47;;
5391;SDS011;2719;53.624;9.786;2024-02-23T14:33:17;1.17;;;0.40;;
5391;SDS011;2719;53.624;9.786;2024-02-23T14:35:45;4.07;;;0.90;;
5391;SDS011;2719;53.624;9.786;2024-02-23T14:38:11;2.13;;;0.50;;
5391;SDS011;2719;53.624;9.786;2024-02-23T14:40:38;7.80;;;0.70;;
5391;SDS011;2719;53.624;9.786;2024-02-23T14:43:05;7.33;;;0.60;;
5391;SDS011;2719;53.624;9.786;2024-02-23T14:45:33;3.27;;;0.50;;
5391;SDS011;2719;53.624;9.786;2024-02-23T14:47:59;2.40;;;0.50;;
5391;SDS011;2719;53.624;9.786;2024-02-23T14:50:26;5.57;;;0.50;;
5391;SDS011;2719;53.624;9.786;2024-02-23T14:52:53;4.33;;;0.43;;
5391;SDS011;2719;53.624;9.786;2024-02-23T14:55:20;3.57;;;0.80;;
5391;SDS011;2719;53.624;9.786;2024-02-23T14:57:46;3.97;;;0.53;;
5391;SDS011;2719;53.624;9.786;2024-02-23T15:00:13;5.80;;;0.50;;
5391;SDS011;2719;53.624;9.786;2024-02-23T15:02:42;3.43;;;0.70;;
5391;SDS011;2719;53.624;9.786;2024-02-23T15:05:09;1.80;;;0.40;;
5391;SDS011;2719;53.624;9.786;2024-02-23T15:07:36;5.83;;;0.50;;
5391;SDS011;2719;53.624;9.786;2024-02-23T15:10:03;3.27;;;0.50;;
5391;SDS011;2719;53.624;9.786;2024-02-23T15:12:33;1.97;;;0.57;;
5391;SDS011;2719;53.624;9.786;2024-02-23T15:14:59;2.93;;;0.50;;
5391;SDS011;2719;53.624;9.786;2024-02-23T15:17:26;6.20;;;0.53;;